Time;durP1;ratioP1;P1;durP2;ratioP2;P2;SDS_P1;SDS_P2;PMS_P1;PMS_P2;Temp;Humidity;BMP_temperature;BMP_pressure;BME280_temperature;BME280_humidity;BME280_pressure;Samples;Min_cycle;Max_cycle;Signal;HPM_P1;HPM_P2
2023/12/15 00:00:18;;;;;;;4.65;1.38;;;11.00;57.00;;;;;;7402045;19;19989;-70
2023/12/15 00:02:45;;;;;;;5.05;1.45;;;11.00;60.50;;;;;;7403098;19;20704;-70
2023/12/15 00:05:11;;;;;;;;;;;11.00;62.50;;;;;;7407170;19;20651;-70
2023/12/15 00:07:36;;;;;;;3.58;0.95;;;11.10;64.00;;;;;;7405291;19;19943;-71
2023/12/15 00:10:03;;;;;;;13.15;1.65;;;11.10;64.40;;;;;;7379051;19;19922;-70
2023/12/15 00:12:29;;;;;;;5.15;1.42;;;11.10;65.80;;;;;;7404279;19;19956;-71
2023/12/15 00:14:54;;;;;;;3.80;1.30;;;11.10;68.10;;;;;;7399637;19;19915;-71
2023/12/15 00:17:20;;;;;;;3.70;1.05;;;11.00;67.00;;;;;;7400235;19;19929;-72
2023/12/15 00:19:46;;;;;;;5.18;1.52;;;10.80;67.00;;;;;;7400518;19;19933;-71
2023/12/15 00:22:12;;;;;;;6.82;1.88;;;10.70;67.80;;;;;;7401961;19;20001;-71
2023/12/15 00:24:37;;;;;;;3.85;1.63;;;10.60;69.00;;;;;;7406252;19;20391;-70
2023/12/15 00:27:03;;;;;;;3.60;1.08;;;10.60;71.60;;;;;;7404301;19;19940;-71
2023/12/15 00:29:29;;;;;;;5.57;1.60;;;10.50;71.30;;;;;;7403028;19;19918;-70
2023/12/15 00:31:55;;;;;;;3.63;1.10;;;10.50;72.20;;;;;;7401856;19;19918;-70
2023/12/15 00:34:20;;;;;;;6.20;1.45;;;10.50;73.70;;;;;;7403428;19;19915;-70
2023/12/15 00:36:46;;;;;;;7.47;1.52;;;10.70;76.10;;;;;;7404263;19;20040;-71
2023/12/15 00:39:12;;;;;;;3.15;1.00;;;10.70;77.70;;;;;;7400313;19;19915;-70
2023/12/15 00:41:38;;;;;;;5.20;1.08;;;10.80;77.70;;;;;;7400214;19;19923;-71
2023/12/15 00:44:03;;;;;;;4.38;1.35;;;10.80;74.70;;;;;;7399475;19;19914;-70
2023/12/15 00:46:29;;;;;;;3.58;1.13;;;10.80;72.00;;;;;;7403654;19;20011;-70
2023/12/15 00:48:55;;;;;;;3.22;0.98;;;10.90;67.40;;;;;;7400927;19;19918;-70
2023/12/15 00:51:21;;;;;;;2.60;0.95;;;11.00;55.90;;;;;;7402496;19;19925;-71
2023/12/15 00:53:47;;;;;;;4.60;0.90;;;11.10;43.40;;;;;;7403975;19;19914;-71
2023/12/15 00:56:13;;;;;;;2.90;1.17;;;11.20;33.50;;;;;;7400040;19;19952;-71
2023/12/15 00:58:38;;;;;;;2.47;0.95;;;11.20;29.00;;;;;;7402326;19;19918;-72
2023/12/15 01:01:05;;;;;;;2.17;0.90;;;11.10;24.80;;;;;;7384568;19;19994;-71
2023/12/15 01:03:31;;;;;;;2.65;1.10;;;11.10;23.20;;;;;;7400524;19;19930;-71
2023/12/15 01:05:57;;;;;;;1.08;0.50;;;11.20;20.70;;;;;;7400234;19;20260;-70
2023/12/15 01:08:23;;;;;;;2.25;0.60;;;11.30;16.30;;;;;;7397905;19;19957;-70
2023/12/15 01:10:49;;;;;;;2.88;0.90;;;11.50;13.40;;;;;;7403000;19;19927;-70
2023/12/15 01:13:15;;;;;;;2.40;0.95;;;11.80;10.70;;;;;;7398590;19;19922;-70
2023/12/15 01:15:42;;;;;;;2.30;0.60;;;11.90;10.10;;;;;;7402240;19;20338;-70
2023/12/15 01:18:10;;;;;;;1.95;0.68;;;11.80;10.30;;;;;;7401869;19;19915;-71
2023/12/15 01:20:36;;;;;;;1.75;0.65;;;11.60;12.20;;;;;;7403037;19;19921;-71
2023/12/15 01:23:02;;;;;;;3.17;0.70;;;11.50;13.60;;;;;;7400504;19;20530;-71
2023/12/15 01:25:28;;;;;;;1.55;0.60;;;11.30;14.50;;;;;;7402856;19;19915;-70
2023/12/15 01:27:53;;;;;;;2.22;0.70;;;11.10;14.10;;;;;;7404542;19;19918;-71
2023/12/15 01:30:19;;;;;;;2.13;0.73;;;11.30;10.50;;;;;;7400795;19;19927;-70
2023/12/15 01:32:45;;;;;;;1.63;0.80;;;11.20;10.80;;;;;;7400533;19;20450;-70
2023/12/15 01:35:11;;;;;;;2.30;0.85;;;11.10;11.00;;;;;;7402138;19;19923;-71
2023/12/15 01:37:37;;;;;;;3.60;0.90;;;11.10;12.30;;;;;;7403824;19;19923;-71
2023/12/15 01:40:03;;;;;;;2.58;0.50;;;10.80;13.40;;;;;;7400416;19;19984;-71
2023/12/15 01:42:28;;;;;;;3.03;1.20;;;10.70;14.40;;;;;;7404138;19;19918;-71
2023/12/15 01:44:54;;;;;;;2.13;0.68;;;10.60;14.80;;;;;;7401792;19;20267;-70
2023/12/15 01:47:21;;;;;;;1.73;0.60;;;10.60;15.10;;;;;;7399972;19;21648;-70
2023/12/15 01:49:47;;;;;;;1.20;0.60;;;10.50;15.20;;;;;;7401701;19;19944;-70
2023/12/15 01:52:13;;;;;;;1.60;0.60;;;10.30;14.90;;;;;;7376618;19;19942;-71
2023/12/15 01:54:39;;;;;;;2.30;0.65;;;10.50;13.40;;;;;;7403410;19;20569;-71
2023/12/15 01:57:07;;;;;;;1.55;0.68;;;10.70;13.40;;;;;;7398457;19;19919;-70
2023/12/15 01:59:49;;;;;;;2.20;1.02;;;10.70;14.00;;;;;;7401379;19;19926;-70
2023/12/15 02:02:15;;;;;;;1.67;0.93;;;10.80;12.40;;;;;;7398953;19;20470;-71
2023/12/15 02:04:41;;;;;;;1.90;0.60;;;11.00;11.50;;;;;;7400983;19;19982;-71
2023/12/15 02:07:07;;;;;;;1.85;0.32;;;11.20;10.60;;;;;;7400513;19;20244;-71
2023/12/15 02:09:33;;;;;;;1.90;0.63;;;11.40;9.80;;;;;;7397734;19;19926;-71
2023/12/15 02:11:59;;;;;;;1.98;0.80;;;11.40;9.30;;;;;;7398654;19;19926;-70
2023/12/15 02:14:25;;;;;;;2.10;0.82;;;11.40;9.00;;;;;;7397151;19;19925;-71
2023/12/15 02:16:51;;;;;;;2.33;0.88;;;11.40;8.50;;;;;;7400110;19;20473;-70
2023/12/15 02:19:16;;;;;;;1.15;0.43;;;11.40;8.90;;;;;;7397467;19;19914;-70
2023/12/15 02:21:42;;;;;;;2.10;0.77;;;11.20;8.50;;;;;;7400289;19;20371;-71
2023/12/15 02:24:08;;;;;;;2.25;0.40;;;11.10;8.90;;;;;;7398380;19;19930;-71
2023/12/15 02:26:34;;;;;;;1.67;0.82;;;11.00;9.50;;;;;;7398263;19;19911;-71
2023/12/15 02:28:59;;;;;;;3.08;1.00;;;10.90;9.90;;;;;;7397491;19;19914;-71
2023/12/15 02:31:25;;;;;;;0.98;0.40;;;11.00;10.30;;;;;;7396382;19;19929;-71
2023/12/15 02:33:53;;;;;;;2.20;0.90;;;11.20;8.90;;;;;;7395913;19;19965;-71
2023/12/15 02:36:20;;;;;;;2.97;0.77;;;11.30;8.20;;;;;;7396683;19;19927;-71
2023/12/15 02:38:45;;;;;;;;;;;11.40;7.90;;;;;;7399828;19;19911;-71
2023/12/15 02:41:11;;;;;;;1.77;0.75;;;11.50;7.90;;;;;;7399623;19;20327;-70
2023/12/15 02:43:37;;;;;;;3.90;0.85;;;11.40;7.80;;;;;;7406909;19;19918;-71
2023/12/15 02:46:04;;;;;;;2.65;0.77;;;11.40;9.90;;;;;;7403345;19;19919;-69
2023/12/15 02:48:30;;;;;;;3.03;0.88;;;11.10;12.10;;;;;;7406167;19;20358;-71
2023/12/15 02:50:56;;;;;;;2.63;0.68;;;11.00;13.50;;;;;;7405897;19;19921;-70
2023/12/15 02:53:21;;;;;;;2.78;0.95;;;10.80;14.10;;;;;;7403557;19;19928;-70
2023/12/15 02:55:47;;;;;;;4.55;0.90;;;10.80;13.90;;;;;;7403659;19;19987;-71
2023/12/15 02:58:13;;;;;;;1.48;0.45;;;10.70;14.10;;;;;;7404423;19;19982;-70
2023/12/15 03:00:38;;;;;;;1.95;0.75;;;10.60;13.20;;;;;;7405127;19;20404;-69
2023/12/15 03:03:04;;;;;;;1.40;0.70;;;10.70;11.90;;;;;;7402617;19;19925;-72
2023/12/15 03:05:30;;;;;;;1.75;0.75;;;10.90;11.80;;;;;;7404936;19;20426;-70
2023/12/15 03:07:56;;;;;;;2.75;1.13;;;11.10;10.50;;;;;;7405207;19;19946;-71
2023/12/15 03:10:22;;;;;;;1.67;0.80;;;11.00;11.20;;;;;;7404727;19;19959;-71
2023/12/15 03:12:48;;;;;;;2.22;0.60;;;10.80;11.70;;;;;;7403535;19;19991;-71
2023/12/15 03:15:13;;;;;;;1.38;0.60;;;10.80;11.50;;;;;;7401460;19;20389;-69
2023/12/15 03:17:39;;;;;;;1.30;0.60;;;11.20;9.60;;;;;;7404797;19;19911;-71
2023/12/15 03:20:06;;;;;;;1.75;0.60;;;11.30;8.30;;;;;;7403393;19;19918;-71
2023/12/15 03:22:32;;;;;;;3.30;0.88;;;11.50;8.30;;;;;;7405628;19;19923;-70
2023/12/15 03:24:58;;;;;;;2.20;0.60;;;11.40;8.30;;;;;;7406453;19;19919;-71
2023/12/15 03:27:24;;;;;;;1.77;0.70;;;11.50;8.30;;;;;;7402025;19;19950;-71
2023/12/15 03:29:50;;;;;;;1.23;0.30;;;11.60;7.70;;;;;;7405095;19;19931;-71
2023/12/15 03:32:16;;;;;;;2.20;0.80;;;11.70;7.60;;;;;;7402042;19;19918;-71
2023/12/15 03:34:42;;;;;;;1.05;0.50;;;11.70;7.50;;;;;;7402929;19;19927;-70
2023/12/15 03:37:11;;;;;;;1.75;0.50;;;11.70;7.60;;;;;;7402160;19;19972;-70
2023/12/15 03:39:36;;;;;;;1.80;0.63;;;11.60;8.10;;;;;;7405815;19;19918;-70
2023/12/15 03:42:06;;;;;;;4.45;0.70;;;11.30;9.90;;;;;;7402114;19;20366;-70
2023/12/15 03:44:33;;;;;;;5.78;1.10;;;11.10;11.40;;;;;;7402926;19;19935;-71
2023/12/15 03:46:59;;;;;;;2.67;0.98;;;10.90;12.40;;;;;;7404601;19;19919;-71
2023/12/15 03:49:24;;;;;;;4.10;0.88;;;10.70;12.70;;;;;;7402941;19;19929;-70
2023/12/15 03:51:50;;;;;;;2.75;0.90;;;10.60;12.80;;;;;;7404605;19;19974;-72
2023/12/15 03:54:16;;;;;;;1.42;0.70;;;10.50;13.60;;;;;;7405358;19;19939;-70
2023/12/15 03:56:42;;;;;;;2.95;0.77;;;10.60;13.30;;;;;;7405616;19;19936;-71
2023/12/15 03:59:09;;;;;;;2.08;0.80;;;10.40;13.30;;;;;;7402672;19;20369;-70
2023/12/15 04:01:34;;;;;;;2.88;0.80;;;10.40;14.00;;;;;;7404042;19;19930;-71
2023/12/15 04:04:00;;;;;;;1.52;0.63;;;10.70;12.80;;;;;;7403099;19;19929;-71
2023/12/15 04:06:26;;;;;;;1.58;0.68;;;11.00;11.00;;;;;;7402599;19;19943;-70
2023/12/15 04:08:52;;;;;;;2.58;1.10;;;11.30;10.30;;;;;;7402826;19;20343;-71
2023/12/15 04:11:18;;;;;;;2.08;0.80;;;11.10;12.50;;;;;;7397202;19;19918;-71
2023/12/15 04:13:44;;;;;;;2.60;0.70;;;11.20;11.00;;;;;;7399856;19;19925;-70
2023/12/15 04:16:10;;;;;;;1.05;0.50;;;11.30;10.30;;;;;;7402360;19;19922;-70
2023/12/15 04:18:36;;;;;;;1.50;0.68;;;11.40;10.20;;;;;;7399925;19;19923;-71
2023/12/15 04:21:03;;;;;;;1.00;0.47;;;11.50;9.90;;;;;;7403785;19;19926;-70
2023/12/15 04:23:29;;;;;;;;;;;11.70;9.40;;;;;;7403380;19;19919;-70
2023/12/15 04:25:57;;;;;;;2.28;0.75;;;11.70;9.10;;;;;;7402647;19;19940;-72
2023/12/15 04:28:26;;;;;;;5.95;0.80;;;11.70;9.00;;;;;;7401480;19;19922;-72
2023/12/15 04:30:52;;;;;;;2.10;0.80;;;11.80;8.90;;;;;;7403980;19;19918;-72
2023/12/15 04:33:18;;;;;;;1.15;0.70;;;11.70;9.60;;;;;;7401715;19;19986;-71
2023/12/15 04:35:44;;;;;;;1.67;0.32;;;11.60;9.70;;;;;;7402712;19;20467;-70
2023/12/15 04:38:09;;;;;;;1.15;0.60;;;11.60;9.40;;;;;;7401168;19;20279;-71
2023/12/15 04:40:35;;;;;;;1.35;0.60;;;11.60;10.00;;;;;;7405691;19;19911;-71
2023/12/15 04:43:01;;;;;;;2.35;0.68;;;11.50;10.00;;;;;;7403887;19;19906;-70
2023/12/15 04:45:27;;;;;;;2.40;0.70;;;11.40;10.40;;;;;;7400125;19;19929;-72
2023/12/15 04:47:54;;;;;;;2.15;1.08;;;11.40;10.40;;;;;;7405670;19;19940;-71
2023/12/15 04:50:20;;;;;;;1.52;0.60;;;11.50;9.50;;;;;;7402446;19;19922;-71
2023/12/15 04:52:46;;;;;;;1.83;0.60;;;11.60;9.10;;;;;;7401564;19;19922;-71
2023/12/15 04:55:12;;;;;;;1.75;0.85;;;11.70;9.20;;;;;;7404304;19;19950;-71
2023/12/15 04:57:38;;;;;;;2.53;0.70;;;11.40;11.60;;;;;;7403962;19;19953;-70
2023/12/15 05:00:05;;;;;;;2.50;0.77;;;11.10;12.60;;;;;;7400130;19;20377;-71
2023/12/15 05:02:31;;;;;;;2.55;0.77;;;10.90;13.20;;;;;;7402785;19;19930;-71
2023/12/15 05:04:57;;;;;;;1.35;0.45;;;10.80;14.00;;;;;;7403085;19;20301;-70
2023/12/15 05:07:22;;;;;;;1.48;0.70;;;10.70;14.10;;;;;;7379762;19;19945;-71
2023/12/15 05:09:48;;;;;;;2.13;0.60;;;10.80;13.20;;;;;;7405560;19;19925;-71
2023/12/15 05:12:14;;;;;;;3.35;0.88;;;10.70;14.20;;;;;;7401897;19;19914;-70
2023/12/15 05:14:39;;;;;;;2.03;0.57;;;10.60;15.60;;;;;;7400935;19;19930;-70
2023/12/15 05:17:05;;;;;;;2.92;1.10;;;10.60;15.60;;;;;;7399978;19;19918;-71
2023/12/15 05:19:31;;;;;;;2.70;0.95;;;10.50;16.50;;;;;;7402642;19;19925;-71
2023/12/15 05:21:57;;;;;;;3.55;0.73;;;10.50;16.30;;;;;;7400619;19;19914;-70
2023/12/15 05:24:23;;;;;;;4.07;1.00;;;10.50;16.20;;;;;;7401840;19;19953;-70
2023/12/15 05:26:48;;;;;;;2.17;0.98;;;10.50;16.20;;;;;;7401099;19;19921;-70
2023/12/15 05:29:14;;;;;;;3.30;0.95;;;10.40;16.70;;;;;;7402452;19;20326;-70
2023/12/15 05:31:44;;;;;;;3.15;1.10;;;10.60;17.40;;;;;;7404980;19;19918;-70
2023/12/15 05:34:10;;;;;;;3.05;1.30;;;10.60;17.90;;;;;;7402893;19;19922;-70
2023/12/15 05:36:36;;;;;;;3.75;1.30;;;10.50;18.40;;;;;;7400670;19;19945;-70
2023/12/15 05:39:01;;;;;;;2.72;1.10;;;10.50;19.10;;;;;;7402326;19;19926;-70
2023/12/15 05:41:27;;;;;;;3.58;1.10;;;10.40;19.30;;;;;;7403250;19;19918;-71
2023/12/15 05:43:53;;;;;;;4.40;1.92;;;10.30;19.80;;;;;;7400900;19;19923;-70
2023/12/15 05:46:20;;;;;;;3.13;1.15;;;10.20;20.00;;;;;;7402596;19;19914;-71
2023/12/15 05:48:46;;;;;;;4.28;1.45;;;10.10;20.30;;;;;;7401054;19;19933;-70
2023/12/15 05:51:11;;;;;;;2.95;1.08;;;10.10;21.00;;;;;;7378603;19;19918;-72
2023/12/15 05:53:37;;;;;;;4.45;1.65;;;9.90;21.30;;;;;;7398368;19;20478;-70
2023/12/15 05:56:04;;;;;;;5.03;1.38;;;10.10;22.00;;;;;;7399617;19;19911;-70
2023/12/15 05:58:29;;;;;;;4.60;1.67;;;10.00;21.90;;;;;;7401870;19;19917;-70
2023/12/15 06:00:55;;;;;;;5.40;0.88;;;9.90;21.70;;;;;;7400578;19;21380;-70
2023/12/15 06:03:21;;;;;;;3.03;1.17;;;9.90;22.20;;;;;;7401071;19;20324;-70
2023/12/15 06:05:49;;;;;;;3.38;1.10;;;9.90;21.40;;;;;;7401846;19;19943;-70
2023/12/15 06:08:15;;;;;;;3.92;1.17;;;10.00;20.90;;;;;;7400421;19;19974;-71
2023/12/15 06:10:42;;;;;;;5.95;1.45;;;10.10;20.40;;;;;;7399673;19;20440;-71
2023/12/15 06:13:07;;;;;;;5.30;1.50;;;10.30;20.50;;;;;;7399414;19;19922;-71
2023/12/15 06:15:35;;;;;;;4.68;1.45;;;10.20;21.60;;;;;;7402043;19;19915;-70
2023/12/15 06:18:02;;;;;;;3.25;1.40;;;10.10;21.80;;;;;;7408289;19;19934;-70
2023/12/15 06:20:28;;;;;;;4.82;1.63;;;10.10;22.10;;;;;;7404352;19;20050;-70
2023/12/15 06:22:54;;;;;;;4.30;1.60;;;10.10;22.20;;;;;;7407768;19;19918;-70
2023/12/15 06:25:20;;;;;;;4.55;0.90;;;10.00;22.20;;;;;;7406700;19;19911;-72
2023/12/15 06:27:45;;;;;;;3.72;1.38;;;10.00;22.90;;;;;;7403861;19;19924;-71
2023/12/15 06:30:12;;;;;;;4.00;1.83;;;9.90;22.90;;;;;;7406743;19;19929;-72
2023/12/15 06:32:38;;;;;;;3.90;1.50;;;10.00;24.10;;;;;;7405761;19;20327;-70
2023/12/15 06:35:05;;;;;;;3.20;1.40;;;9.90;24.60;;;;;;7405384;19;19915;-71
2023/12/15 06:37:31;;;;;;;6.10;1.65;;;9.80;25.30;;;;;;7405813;19;19927;-70
2023/12/15 06:39:57;;;;;;;4.95;1.73;;;9.70;25.80;;;;;;7407916;19;19915;-70
2023/12/15 06:42:22;;;;;;;5.90;1.77;;;9.60;26.90;;;;;;7403389;19;19931;-71
2023/12/15 06:44:48;;;;;;;6.45;1.90;;;9.70;27.80;;;;;;7405967;19;19943;-71
2023/12/15 06:47:14;;;;;;;6.57;1.83;;;9.70;28.20;;;;;;7409843;19;20335;-71
2023/12/15 06:49:40;;;;;;;4.63;2.10;;;9.50;28.40;;;;;;7406939;19;20343;-70
2023/12/15 06:52:08;;;;;;;5.00;1.83;;;9.50;29.60;;;;;;7402885;19;19929;-72
2023/12/15 06:54:39;;;;;;;5.90;1.67;;;9.50;29.20;;;;;;7405886;19;19936;-71
2023/12/15 06:57:06;;;;;;;5.03;1.88;;;9.50;29.20;;;;;;7405572;19;20379;-70
2023/12/15 06:59:32;;;;;;;4.82;1.60;;;9.40;28.90;;;;;;7404955;19;19915;-70
2023/12/15 07:01:58;;;;;;;4.85;1.63;;;9.40;30.10;;;;;;7407933;19;19935;-70
2023/12/15 07:04:23;;;;;;;5.97;1.70;;;9.40;30.10;;;;;;7405750;19;19949;-71
2023/12/15 07:06:49;;;;;;;4.68;1.55;;;9.50;30.30;;;;;;7404962;19;19920;-69
2023/12/15 07:09:15;;;;;;;4.65;1.83;;;9.40;30.70;;;;;;7402792;19;19914;-70
2023/12/15 07:11:41;;;;;;;5.53;2.13;;;9.50;30.00;;;;;;7407429;19;20350;-70
2023/12/15 07:14:06;;;;;;;7.60;1.73;;;9.40;30.70;;;;;;7403830;19;19926;-71
2023/12/15 07:16:32;;;;;;;5.18;2.08;;;9.30;31.60;;;;;;7404116;19;19910;-70
2023/12/15 07:18:58;;;;;;;4.55;1.40;;;9.40;32.70;;;;;;7406866;19;20299;-71
2023/12/15 07:21:24;;;;;;;5.40;1.95;;;9.50;31.80;;;;;;7403736;19;19919;-70
2023/12/15 07:23:50;;;;;;;4.70;1.77;;;9.60;31.30;;;;;;7404406;19;19915;-70
2023/12/15 07:26:17;;;;;;;8.15;2.50;;;9.50;31.20;;;;;;7402901;19;19911;-70
2023/12/15 07:28:44;;;;;;;7.43;2.08;;;9.60;31.40;;;;;;7404537;19;19922;-69
2023/12/15 07:31:09;;;;;;;8.15;1.60;;;9.50;31.00;;;;;;7403140;19;19921;-73
2023/12/15 07:33:35;;;;;;;7.78;2.65;;;9.50;31.20;;;;;;7402581;19;19918;-71
2023/12/15 07:36:01;;;;;;;6.38;1.60;;;9.70;30.70;;;;;;7403995;19;19919;-70
2023/12/15 07:38:27;;;;;;;5.00;1.48;;;9.80;30.10;;;;;;7404052;19;19915;-72
2023/12/15 07:40:54;;;;;;;6.63;1.73;;;9.70;29.80;;;;;;7403823;19;19923;-72
2023/12/15 07:43:20;;;;;;;;;;;9.70;29.90;;;;;;7397365;19;19941;-72
2023/12/15 07:45:46;;;;;;;4.38;1.65;;;9.70;30.30;;;;;;7404127;19;19917;-72
2023/12/15 07:48:13;;;;;;;7.55;1.95;;;9.70;30.10;;;;;;7402690;19;19919;-73
2023/12/15 07:50:40;;;;;;;10.10;2.47;;;9.70;30.40;;;;;;7404493;19;19919;-72
2023/12/15 07:53:05;;;;;;;5.82;2.00;;;9.80;30.30;;;;;;7401774;19;19922;-72
2023/12/15 07:55:31;;;;;;;19.67;3.03;;;10.00;30.00;;;;;;7406105;19;20623;-71
2023/12/15 07:57:57;;;;;;;5.68;1.75;;;10.10;29.70;;;;;;7405091;19;19914;-71
2023/12/15 08:00:23;;;;;;;3.80;1.00;;;10.30;28.20;;;;;;7401207;19;19930;-72
2023/12/15 08:02:49;;;;;;;5.55;0.98;;;10.40;27.30;;;;;;7374880;19;19922;-74
2023/12/15 08:05:17;;;;;;;6.18;1.67;;;10.50;26.30;;;;;;7399916;19;19918;-72
2023/12/15 08:07:43;;;;;;;5.35;1.63;;;10.40;27.10;;;;;;7375943;19;20707;-73
2023/12/15 08:10:09;;;;;;;8.02;2.38;;;10.50;26.80;;;;;;7399073;19;19914;-72
2023/12/15 08:12:35;;;;;;;6.60;2.63;;;11.50;26.40;;;;;;7397606;19;19927;-72
2023/12/15 08:15:02;;;;;;;8.32;2.97;;;13.20;22.60;;;;;;7400088;19;19939;-73
2023/12/15 08:17:28;;;;;;;6.20;2.70;;;14.20;17.70;;;;;;7390391;19;20375;-71
2023/12/15 08:19:53;;;;;;;6.72;2.53;;;14.70;15.80;;;;;;7377249;19;19949;-72
2023/12/15 08:22:21;;;;;;;6.25;2.10;;;15.60;14.20;;;;;;7403263;19;19923;-74
2023/12/15 08:24:47;;;;;;;3.90;1.27;;;15.90;13.20;;;;;;7400513;19;19961;-71
2023/12/15 08:27:15;;;;;;;6.10;1.17;;;16.60;10.40;;;;;;7396171;19;20584;-71
2023/12/15 08:29:42;;;;;;;4.90;1.80;;;17.20;9.20;;;;;;7398994;19;19936;-71
2023/12/15 08:32:08;;;;;;;3.45;1.83;;;18.00;6.80;;;;;;7391514;19;19931;-72
2023/12/15 08:34:34;;;;;;;3.08;1.33;;;18.10;5.60;;;;;;7405037;19;19918;-74
2023/12/15 08:37:00;;;;;;;3.90;1.65;;;18.50;3.40;;;;;;7399097;19;19914;-72
2023/12/15 08:39:26;;;;;;;5.40;1.50;;;18.70;3.40;;;;;;7401477;19;19918;-72
2023/12/15 08:41:51;;;;;;;5.03;1.80;;;18.80;2.40;;;;;;7370497;19;19946;-75
2023/12/15 08:44:17;;;;;;;3.35;1.40;;;18.80;2.00;;;;;;7393212;19;19914;-72
2023/12/15 08:46:43;;;;;;;4.93;1.50;;;17.80;2.20;;;;;;7390689;19;19914;-71
2023/12/15 08:49:08;;;;;;;3.13;1.58;;;16.90;3.30;;;;;;7390371;19;19975;-73
2023/12/15 08:51:34;;;;;;;2.30;1.30;;;16.30;4.10;;;;;;7400788;19;20564;-74
2023/12/15 08:54:00;;;;;;;4.10;1.30;;;15.80;5.00;;;;;;7396408;19;19915;-72
2023/12/15 08:56:26;;;;;;;3.20;1.10;;;15.50;5.80;;;;;;7385891;19;19930;-73
2023/12/15 08:58:51;;;;;;;5.63;1.52;;;15.20;6.60;;;;;;7403873;19;19953;-73
2023/12/15 09:01:18;;;;;;;4.45;2.08;;;14.90;6.80;;;;;;7387491;19;19911;-74
2023/12/15 09:03:43;;;;;;;4.00;1.77;;;14.80;7.00;;;;;;7389208;19;19919;-72
2023/12/15 09:06:11;;;;;;;2.83;1.35;;;14.70;6.50;;;;;;7396960;19;19946;-74
2023/12/15 09:08:38;;;;;;;6.28;1.73;;;14.60;6.70;;;;;;7403054;19;19935;-73
2023/12/15 09:11:05;;;;;;;;;;;14.70;7.30;;;;;;7402203;19;19915;-72
2023/12/15 09:13:33;;;;;;;4.32;1.00;;;14.60;6.30;;;;;;7400663;19;19911;-72
2023/12/15 09:15:59;;;;;;;5.82;1.30;;;14.70;6.30;;;;;;7399956;19;19943;-73
2023/12/15 09:18:25;;;;;;;2.63;1.45;;;14.90;6.30;;;;;;7401171;19;19915;-73
2023/12/15 09:20:50;;;;;;;2.63;1.30;;;15.10;6.10;;;;;;7380790;19;20402;-72
2023/12/15 09:23:16;;;;;;;4.07;1.63;;;15.40;5.70;;;;;;7399405;19;20552;-75
2023/12/15 09:25:47;;;;;;;4.53;1.42;;;15.80;5.60;;;;;;7403559;19;20254;-72
2023/12/15 09:28:12;;;;;;;4.32;1.25;;;16.10;4.30;;;;;;7400923;19;20308;-74
2023/12/15 09:30:38;;;;;;;4.75;1.90;;;16.40;3.50;;;;;;7401526;19;19914;-71
2023/12/15 09:33:04;;;;;;;2.42;1.50;;;16.80;3.90;;;;;;7400360;19;19939;-73
2023/12/15 09:35:29;;;;;;;4.20;1.92;;;16.60;3.10;;;;;;7404096;19;19918;-72
2023/12/15 09:37:55;;;;;;;2.80;1.65;;;16.90;3.50;;;;;;7402993;19;19915;-74
2023/12/15 09:40:25;;;;;;;4.70;2.50;;;17.10;1.70;;;;;;7380682;19;19918;-75
2023/12/15 09:42:51;;;;;;;3.13;1.90;;;17.40;1.60;;;;;;7401308;19;19982;-73
2023/12/15 09:45:17;;;;;;;11.35;5.40;;;17.50;1.60;;;;;;7400195;19;19948;-72
2023/12/15 09:47:46;;;;;;;5.47;2.40;;;17.90;1.60;;;;;;7403393;19;19923;-72
2023/12/15 09:50:15;;;;;;;4.82;2.20;;;18.10;1.40;;;;;;7398200;19;19923;-73
2023/12/15 09:52:41;;;;;;;3.30;1.63;;;18.30;1.50;;;;;;7400156;19;19918;-73
2023/12/15 09:55:08;;;;;;;3.33;1.60;;;18.20;2.00;;;;;;7400637;19;19914;-72
2023/12/15 09:57:34;;;;;;;;;;;18.30;1.70;;;;;;7406337;19;19915;-73
2023/12/15 10:00:00;;;;;;;4.85;1.80;;;18.30;1.60;;;;;;7403302;19;19922;-73
2023/12/15 10:02:25;;;;;;;7.95;1.55;;;18.30;1.80;;;;;;7404729;19;19934;-73
2023/12/15 10:04:51;;;;;;;6.68;1.90;;;17.00;2.60;;;;;;7404454;19;20331;-73
2023/12/15 10:07:17;;;;;;;4.32;1.85;;;16.90;4.10;;;;;;7402991;19;20570;-73
2023/12/15 10:09:43;;;;;;;9.63;3.13;;;17.60;4.50;;;;;;7404865;19;19917;-73
2023/12/15 10:12:12;;;;;;;9.57;3.00;;;17.90;2.70;;;;;;7382707;19;19915;-72
2023/12/15 10:14:38;;;;;;;7.57;3.63;;;18.10;2.20;;;;;;7403804;19;20020;-72
2023/12/15 10:17:11;;;;;;;7.25;4.60;;;17.30;2.50;;;;;;7400062;19;19925;-71
2023/12/15 10:19:38;;;;;;;14.65;7.90;;;17.50;3.00;;;;;;7403045;19;19914;-72
2023/12/15 10:22:05;;;;;;;9.90;5.47;;;17.80;2.50;;;;;;7393250;19;19922;-73
2023/12/15 10:24:33;;;;;;;9.48;3.55;;;18.40;2.20;;;;;;7398181;19;19923;-73
2023/12/15 10:27:02;;;;;;;5.80;2.72;;;18.70;1.30;;;;;;7400254;19;19919;-73
2023/12/15 10:29:28;;;;;;;6.43;2.55;;;19.00;1.00;;;;;;7383246;19;19914;-72
2023/12/15 10:31:55;;;;;;;8.13;2.13;;;19.20;1.00;;;;;;7389763;19;20652;-73
2023/12/15 10:34:25;;;;;;;3.70;1.65;;;19.80;1.00;;;;;;7394921;19;19915;-73
2023/12/15 10:36:52;;;;;;;3.72;1.52;;;19.80;1.00;;;;;;7393880;19;20567;-73
2023/12/15 10:39:19;;;;;;;7.38;1.45;;;20.10;1.00;;;;;;7393482;19;19922;-71
2023/12/15 10:41:45;;;;;;;6.07;1.75;;;20.40;1.00;;;;;;7402303;19;20354;-71
2023/12/15 10:44:15;;;;;;;4.38;1.60;;;20.70;1.00;;;;;;7397852;19;19910;-74
2023/12/15 10:46:42;;;;;;;4.15;2.28;;;20.80;1.00;;;;;;7396845;19;20338;-73
2023/12/15 10:49:09;;;;;;;2.83;1.73;;;21.10;1.00;;;;;;7388521;19;19922;-74
2023/12/15 10:51:38;;;;;;;3.15;1.45;;;21.30;1.00;;;;;;7391363;19;20340;-77
2023/12/15 10:54:06;;;;;;;4.63;1.58;;;21.30;1.00;;;;;;7394522;19;20272;-77
2023/12/15 10:56:32;;;;;;;2.90;1.80;;;21.00;1.00;;;;;;7395656;19;19939;-74
2023/12/15 10:59:00;;;;;;;7.07;2.60;;;21.90;1.00;;;;;;7397802;19;19971;-72
2023/12/15 11:01:28;;;;;;;4.57;2.42;;;22.40;1.00;;;;;;7392356;19;19944;-73
2023/12/15 11:03:54;;;;;;;3.47;1.55;;;22.60;1.00;;;;;;7406857;19;20258;-73
2023/12/15 11:06:46;;;;;;;7.80;2.78;;;22.50;1.00;;;;;;7380300;19;19922;-72
2023/12/15 11:09:30;;;;;;;3.25;1.92;;;22.60;1.00;;;;;;7377518;19;20011;-78
2023/12/15 11:12:38;;;;;;;4.50;2.40;;;22.70;1.00;;;;;;7393366;19;19918;-70
2023/12/15 11:15:06;;;;;;;;;;;23.40;1.00;;;;;;7401558;19;20397;-72
2023/12/15 11:17:32;;;;;;;5.60;1.92;;;23.90;1.00;;;;;;7389876;19;19966;-72
2023/12/15 11:20:06;;;;;;;4.63;2.15;;;24.10;1.00;;;;;;7378099;19;20348;-74
2023/12/15 11:22:42;;;;;;;4.00;2.38;;;24.10;1.00;;;;;;7401984;19;19925;-76
2023/12/15 11:25:15;;;;;;;5.88;2.50;;;24.50;1.00;;;;;;7393728;19;19954;-72
2023/12/15 11:28:00;;;;;;;3.83;1.88;;;24.80;1.00;;;;;;7397826;19;19934;-72
2023/12/15 11:30:29;;;;;;;3.03;2.08;;;24.10;1.00;;;;;;7398144;19;20488;-76
2023/12/15 11:32:55;;;;;;;4.10;2.10;;;23.80;1.00;;;;;;7401193;19;19915;-74
2023/12/15 11:35:53;;;;;;;3.40;1.90;;;23.90;1.00;;;;;;7396648;19;19914;-74
2023/12/15 11:38:29;;;;;;;3.78;1.50;;;24.40;1.00;;;;;;7374713;19;19943;-75
2023/12/15 11:40:56;;;;;;;8.13;2.38;;;24.50;1.00;;;;;;7407357;19;20010;-74
2023/12/15 11:43:25;;;;;;;4.55;2.40;;;24.30;1.00;;;;;;7404656;19;19918;-75
2023/12/15 11:45:55;;;;;;;4.97;2.35;;;23.50;1.00;;;;;;7408878;19;19998;-73
2023/12/15 11:48:24;;;;;;;3.70;2.08;;;23.40;1.00;;;;;;7405092;19;19915;-73
2023/12/15 11:50:50;;;;;;;6.75;2.17;;;23.10;1.00;;;;;;7410289;19;19926;-75
2023/12/15 11:53:17;;;;;;;6.68;2.40;;;22.90;1.00;;;;;;7406960;19;19966;-74
2023/12/15 11:55:46;;;;;;;5.28;3.35;;;23.30;1.00;;;;;;7408562;19;19922;-74
2023/12/15 11:58:14;;;;;;;9.10;2.90;;;23.30;1.00;;;;;;7403735;19;19918;-75
2023/12/15 12:00:40;;;;;;;5.22;2.22;;;24.30;1.00;;;;;;7383694;19;20343;-75
2023/12/15 12:03:09;;;;;;;4.15;2.38;;;24.60;1.00;;;;;;7382543;19;19944;-74
2023/12/15 12:05:35;;;;;;;8.40;3.08;;;24.80;1.00;;;;;;7408142;19;20773;-74
2023/12/15 12:08:01;;;;;;;;;;;25.30;1.00;;;;;;7407196;19;19918;-74
2023/12/15 12:10:35;;;;;;;4.18;2.47;;;25.30;1.00;;;;;;7403608;19;19957;-74
2023/12/15 12:13:02;;;;;;;6.05;2.75;;;23.30;1.00;;;;;;7405845;19;19938;-73
2023/12/15 12:15:28;;;;;;;5.55;3.05;;;23.50;1.00;;;;;;7404407;19;19915;-74
2023/12/15 12:17:55;;;;;;;4.53;2.97;;;24.00;1.00;;;;;;7402574;19;19929;-74
2023/12/15 12:20:27;;;;;;;8.15;1.52;;;24.50;1.00;;;;;;7406916;19;21120;-74
2023/12/15 12:22:55;;;;;;;6.65;2.60;;;23.30;1.00;;;;;;7384491;19;19927;-74
2023/12/15 12:25:20;;;;;;;5.05;2.35;;;23.70;1.00;;;;;;7389240;19;19978;-73
2023/12/15 12:27:46;;;;;;;5.00;3.28;;;22.60;1.00;;;;;;7391012;19;19935;-74
2023/12/15 12:30:16;;;;;;;5.93;2.38;;;22.90;1.00;;;;;;7383018;19;19915;-75
2023/12/15 12:32:43;;;;;;;4.05;2.22;;;22.30;1.00;;;;;;7382465;19;19978;-76
2023/12/15 12:35:09;;;;;;;7.28;3.10;;;22.60;1.00;;;;;;7388177;19;19918;-76
2023/12/15 12:37:35;;;;;;;;;;;23.30;1.00;;;;;;7404225;19;19911;-75
2023/12/15 12:40:05;;;;;;;6.53;3.20;;;24.10;1.00;;;;;;7400811;19;19925;-74
2023/12/15 12:42:35;;;;;;;4.60;2.60;;;24.70;1.00;;;;;;7403130;19;19935;-75
2023/12/15 12:45:01;;;;;;;4.72;2.10;;;24.40;1.00;;;;;;7393356;19;19945;-75
2023/12/15 12:47:27;;;;;;;5.07;2.22;;;24.70;1.00;;;;;;7379087;19;19974;-74
2023/12/15 12:49:54;;;;;;;6.10;2.17;;;23.60;1.00;;;;;;7401698;19;19982;-73
2023/12/15 12:52:20;;;;;;;6.45;1.92;;;24.60;1.00;;;;;;7357559;19;19914;-73